ENHV/HVG METAR and TAF weather

Enter ICAO airport designator
Station Type Date Time Source
ENHV METAR 2019/08/21 19:50 UTC NOAA

ENHV 211950Z VRB02KT CAVOK 11/09 Q1012


Station Type Date Time Source
ENHV Decoded METAR 2019/08/21 19:50 UTC NOAA

Station name not available
Aug 21, 2019 - 03:50 PM EDT / 2019.08.21 1950 UTC
Wind: Variable at 2 MPH (2 KT):0
Visibility: greater than 7 mile(s):0
Temperature: 51 F (11 C)
Dew Point: 48 F (9 C)
Relative Humidity: 87%
Pressure (altimeter): 29.88 in. Hg (1012 hPa)
ob: ENHV 211950Z VRB02KT CAVOK 11/09 Q1012
cycle: 20

Station Type Date Time Source
ENHV TAF UTC NOAA

Error!

Example: see airport list